sensor_id;sensor_type;location;lat;lon;timestamp;P1;durP1;ratioP1;P2;durP2;ratioP2
59856;SDS011;45733;52.668;6.860;2023-12-22T00:01:54;4.45;;;4.18;;
59856;SDS011;45733;52.668;6.860;2023-12-22T00:04:20;3.67;;;3.47;;
59856;SDS011;45733;52.668;6.860;2023-12-22T00:06:46;4.22;;;3.95;;
59856;SDS011;45733;52.668;6.860;2023-12-22T00:09:13;4.28;;;4.03;;
59856;SDS011;45733;52.668;6.860;2023-12-22T00:11:39;4.07;;;3.88;;
59856;SDS011;45733;52.668;6.860;2023-12-22T00:14:08;4.40;;;4.15;;
59856;SDS011;45733;52.668;6.860;2023-12-22T00:16:37;4.70;;;4.40;;
59856;SDS011;45733;52.668;6.860;2023-12-22T00:19:03;4.65;;;4.35;;
59856;SDS011;45733;52.668;6.860;2023-12-22T00:21:32;4.75;;;4.45;;
59856;SDS011;45733;52.668;6.860;2023-12-22T00:23:58;5.05;;;4.75;;
59856;SDS011;45733;52.668;6.860;2023-12-22T00:26:23;5.15;;;4.85;;
59856;SDS011;45733;52.668;6.860;2023-12-22T00:28:49;4.15;;;3.88;;
59856;SDS011;45733;52.668;6.860;2023-12-22T00:31:15;4.43;;;4.15;;
59856;SDS011;45733;52.668;6.860;2023-12-22T00:33:40;4.28;;;4.03;;
59856;SDS011;45733;52.668;6.860;2023-12-22T00:36:07;4.65;;;4.35;;
59856;SDS011;45733;52.668;6.860;2023-12-22T00:38:33;4.80;;;4.50;;
59856;SDS011;45733;52.668;6.860;2023-12-22T00:40:59;4.75;;;4.45;;
59856;SDS011;45733;52.668;6.860;2023-12-22T00:43:24;4.97;;;4.68;;
59856;SDS011;45733;52.668;6.860;2023-12-22T00:45:50;4.75;;;4.45;;
59856;SDS011;45733;52.668;6.860;2023-12-22T00:48:16;4.55;;;4.25;;
59856;SDS011;45733;52.668;6.860;2023-12-22T00:50:41;4.47;;;4.20;;
59856;SDS011;45733;52.668;6.860;2023-12-22T00:53:07;5.00;;;4.70;;
59856;SDS011;45733;52.668;6.860;2023-12-22T00:55:33;4.05;;;3.83;;
59856;SDS011;45733;52.668;6.860;2023-12-22T00:57:58;4.57;;;4.28;;
59856;SDS011;45733;52.668;6.860;2023-12-22T01:00:24;5.10;;;4.80;;
59856;SDS011;45733;52.668;6.860;2023-12-22T01:02:49;5.00;;;4.70;;
59856;SDS011;45733;52.668;6.860;2023-12-22T01:05:15;4.93;;;4.63;;
59856;SDS011;45733;52.668;6.860;2023-12-22T01:07:41;4.60;;;4.30;;
59856;SDS011;45733;52.668;6.860;2023-12-22T01:10:07;4.07;;;3.85;;
59856;SDS011;45733;52.668;6.860;2023-12-22T01:12:34;4.93;;;4.63;;
59856;SDS011;45733;52.668;6.860;2023-12-22T01:14:59;4.55;;;4.25;;
59856;SDS011;45733;52.668;6.860;2023-12-22T01:17:25;4.32;;;4.05;;
59856;SDS011;45733;52.668;6.860;2023-12-22T01:19:51;4.95;;;4.65;;
59856;SDS011;45733;52.668;6.860;2023-12-22T01:22:17;4.60;;;4.30;;
59856;SDS011;45733;52.668;6.860;2023-12-22T01:24:43;3.85;;;3.63;;
59856;SDS011;45733;52.668;6.860;2023-12-22T01:27:10;4.55;;;4.25;;
59856;SDS011;45733;52.668;6.860;2023-12-22T01:29:36;4.30;;;4.05;;
59856;SDS011;45733;52.668;6.860;2023-12-22T01:32:01;4.75;;;4.45;;
59856;SDS011;45733;52.668;6.860;2023-12-22T01:34:27;4.30;;;4.05;;
59856;SDS011;45733;52.668;6.860;2023-12-22T01:36:53;4.60;;;4.30;;
59856;SDS011;45733;52.668;6.860;2023-12-22T01:39:19;4.93;;;4.63;;
59856;SDS011;45733;52.668;6.860;2023-12-22T01:41:44;5.00;;;4.70;;
59856;SDS011;45733;52.668;6.860;2023-12-22T01:44:10;4.32;;;4.05;;
59856;SDS011;45733;52.668;6.860;2023-12-22T01:46:38;4.95;;;4.65;;
59856;SDS011;45733;52.668;6.860;2023-12-22T01:49:04;4.75;;;4.45;;
59856;SDS011;45733;52.668;6.860;2023-12-22T01:51:33;4.18;;;3.95;;
59856;SDS011;45733;52.668;6.860;2023-12-22T01:54:00;5.03;;;4.72;;
59856;SDS011;45733;52.668;6.860;2023-12-22T01:56:26;4.55;;;4.28;;
59856;SDS011;45733;52.668;6.860;2023-12-22T01:58:55;5.43;;;5.13;;
59856;SDS011;45733;52.668;6.860;2023-12-22T02:01:24;5.30;;;5.00;;
59856;SDS011;45733;52.668;6.860;2023-12-22T02:03:50;4.95;;;4.65;;
59856;SDS011;45733;52.668;6.860;2023-12-22T02:06:17;5.63;;;5.30;;
59856;SDS011;45733;52.668;6.860;2023-12-22T02:08:45;5.18;;;4.88;;
59856;SDS011;45733;52.668;6.860;2023-12-22T02:11:12;5.32;;;5.03;;
59856;SDS011;45733;52.668;6.860;2023-12-22T02:13:42;5.15;;;4.85;;
59856;SDS011;45733;52.668;6.860;2023-12-22T02:16:15;5.22;;;4.93;;
59856;SDS011;45733;52.668;6.860;2023-12-22T02:19:09;4.85;;;4.55;;
59856;SDS011;45733;52.668;6.860;2023-12-22T02:22:05;4.75;;;4.45;;
59856;SDS011;45733;52.668;6.860;2023-12-22T02:24:32;4.18;;;3.95;;
59856;SDS011;45733;52.668;6.860;2023-12-22T02:27:10;4.65;;;4.35;;
59856;SDS011;45733;52.668;6.860;2023-12-22T02:32:49;4.78;;;4.47;;
59856;SDS011;45733;52.668;6.860;2023-12-22T02:35:19;3.97;;;3.75;;
59856;SDS011;45733;52.668;6.860;2023-12-22T02:37:47;4.85;;;4.55;;
59856;SDS011;45733;52.668;6.860;2023-12-22T02:40:14;4.85;;;4.55;;
59856;SDS011;45733;52.668;6.860;2023-12-22T02:42:40;4.97;;;4.68;;
59856;SDS011;45733;52.668;6.860;2023-12-22T02:45:12;4.10;;;3.85;;
59856;SDS011;45733;52.668;6.860;2023-12-22T02:47:43;4.55;;;4.25;;
59856;SDS011;45733;52.668;6.860;2023-12-22T02:50:09;3.85;;;3.65;;
59856;SDS011;45733;52.668;6.860;2023-12-22T02:52:36;4.80;;;4.50;;
59856;SDS011;45733;52.668;6.860;2023-12-22T02:55:02;4.47;;;4.18;;
59856;SDS011;45733;52.668;6.860;2023-12-22T02:57:28;4.85;;;4.55;;
59856;SDS011;45733;52.668;6.860;2023-12-22T02:59:54;4.70;;;4.40;;
59856;SDS011;45733;52.668;6.860;2023-12-22T03:02:20;4.47;;;4.18;;
59856;SDS011;45733;52.668;6.860;2023-12-22T03:04:46;4.30;;;4.07;;
59856;SDS011;45733;52.668;6.860;2023-12-22T03:07:12;4.65;;;4.35;;
59856;SDS011;45733;52.668;6.860;2023-12-22T03:09:38;4.47;;;4.18;;
59856;SDS011;45733;52.668;6.860;2023-12-22T03:12:05;4.22;;;4.00;;
59856;SDS011;45733;52.668;6.860;2023-12-22T03:14:32;4.25;;;4.00;;
59856;SDS011;45733;52.668;6.860;2023-12-22T03:17:02;4.63;;;4.32;;
59856;SDS011;45733;52.668;6.860;2023-12-22T03:19:29;4.72;;;4.43;;
59856;SDS011;45733;52.668;6.860;2023-12-22T03:22:00;4.93;;;4.63;;
59856;SDS011;45733;52.668;6.860;2023-12-22T03:24:26;4.38;;;4.07;;
59856;SDS011;45733;52.668;6.860;2023-12-22T03:26:53;4.90;;;4.60;;
59856;SDS011;45733;52.668;6.860;2023-12-22T03:29:19;4.28;;;4.03;;
59856;SDS011;45733;52.668;6.860;2023-12-22T03:31:45;4.95;;;4.65;;
59856;SDS011;45733;52.668;6.860;2023-12-22T03:34:11;4.85;;;4.55;;
59856;SDS011;45733;52.668;6.860;2023-12-22T03:36:38;3.45;;;3.25;;
59856;SDS011;45733;52.668;6.860;2023-12-22T03:39:04;4.38;;;4.13;;
59856;SDS011;45733;52.668;6.860;2023-12-22T03:41:30;4.63;;;4.32;;
59856;SDS011;45733;52.668;6.860;2023-12-22T03:43:56;4.28;;;4.07;;
59856;SDS011;45733;52.668;6.860;2023-12-22T03:46:23;4.13;;;3.92;;
59856;SDS011;45733;52.668;6.860;2023-12-22T03:48:49;3.90;;;3.70;;
59856;SDS011;45733;52.668;6.860;2023-12-22T03:51:15;4.38;;;4.07;;
59856;SDS011;45733;52.668;6.860;2023-12-22T03:53:41;4.95;;;4.65;;
59856;SDS011;45733;52.668;6.860;2023-12-22T03:56:07;4.40;;;4.10;;
59856;SDS011;45733;52.668;6.860;2023-12-22T03:58:34;3.95;;;3.75;;
59856;SDS011;45733;52.668;6.860;2023-12-22T04:01:00;3.65;;;3.45;;
59856;SDS011;45733;52.668;6.860;2023-12-22T04:03:26;4.00;;;3.80;;
59856;SDS011;45733;52.668;6.860;2023-12-22T04:05:51;3.42;;;3.22;;
59856;SDS011;45733;52.668;6.860;2023-12-22T04:08:20;3.88;;;3.67;;
59856;SDS011;45733;52.668;6.860;2023-12-22T04:10:46;3.00;;;2.80;;
59856;SDS011;45733;52.668;6.860;2023-12-22T04:13:12;2.55;;;2.45;;
59856;SDS011;45733;52.668;6.860;2023-12-22T04:15:38;2.70;;;2.60;;
59856;SDS011;45733;52.668;6.860;2023-12-22T04:18:04;2.50;;;2.40;;
59856;SDS011;45733;52.668;6.860;2023-12-22T04:20:30;2.40;;;2.30;;
59856;SDS011;45733;52.668;6.860;2023-12-22T04:22:56;2.30;;;2.20;;
59856;SDS011;45733;52.668;6.860;2023-12-22T04:25:22;1.73;;;1.63;;
59856;SDS011;45733;52.668;6.860;2023-12-22T04:27:49;1.70;;;1.60;;
59856;SDS011;45733;52.668;6.860;2023-12-22T04:30:15;1.73;;;1.63;;
59856;SDS011;45733;52.668;6.860;2023-12-22T04:32:41;1.80;;;1.70;;
59856;SDS011;45733;52.668;6.860;2023-12-22T04:35:07;1.75;;;1.65;;
59856;SDS011;45733;52.668;6.860;2023-12-22T04:37:33;1.33;;;1.33;;
59856;SDS011;45733;52.668;6.860;2023-12-22T04:39:59;1.30;;;1.30;;
59856;SDS011;45733;52.668;6.860;2023-12-22T04:42:24;1.30;;;1.30;;
59856;SDS011;45733;52.668;6.860;2023-12-22T04:44:51;1.50;;;1.40;;
59856;SDS011;45733;52.668;6.860;2023-12-22T04:47:17;1.95;;;1.85;;
59856;SDS011;45733;52.668;6.860;2023-12-22T04:49:43;1.70;;;1.60;;
59856;SDS011;45733;52.668;6.860;2023-12-22T04:52:10;1.30;;;1.30;;
59856;SDS011;45733;52.668;6.860;2023-12-22T04:54:36;1.88;;;1.77;;
59856;SDS011;45733;52.668;6.860;2023-12-22T04:57:02;1.60;;;1.50;;
59856;SDS011;45733;52.668;6.860;2023-12-22T04:59:28;1.90;;;1.80;;
59856;SDS011;45733;52.668;6.860;2023-12-22T05:01:53;1.52;;;1.42;;
59856;SDS011;45733;52.668;6.860;2023-12-22T05:04:19;1.92;;;1.83;;
59856;SDS011;45733;52.668;6.860;2023-12-22T05:06:45;1.90;;;1.80;;
59856;SDS011;45733;52.668;6.860;2023-12-22T05:09:11;1.80;;;1.70;;
59856;SDS011;45733;52.668;6.860;2023-12-22T05:11:37;2.42;;;2.33;;
59856;SDS011;45733;52.668;6.860;2023-12-22T05:14:03;2.00;;;1.90;;
59856;SDS011;45733;52.668;6.860;2023-12-22T05:16:29;1.88;;;1.77;;
59856;SDS011;45733;52.668;6.860;2023-12-22T05:18:59;2.05;;;1.95;;
59856;SDS011;45733;52.668;6.860;2023-12-22T05:21:25;2.40;;;2.30;;
59856;SDS011;45733;52.668;6.860;2023-12-22T05:23:52;2.60;;;2.50;;
59856;SDS011;45733;52.668;6.860;2023-12-22T05:26:24;2.40;;;2.30;;
59856;SDS011;45733;52.668;6.860;2023-12-22T05:28:55;3.03;;;2.83;;
59856;SDS011;45733;52.668;6.860;2023-12-22T05:31:21;2.95;;;2.80;;
59856;SDS011;45733;52.668;6.860;2023-12-22T05:33:47;3.30;;;3.10;;
59856;SDS011;45733;52.668;6.860;2023-12-22T05:36:13;3.83;;;3.63;;
59856;SDS011;45733;52.668;6.860;2023-12-22T05:38:38;3.55;;;3.35;;
59856;SDS011;45733;52.668;6.860;2023-12-22T05:41:04;3.25;;;3.05;;
59856;SDS011;45733;52.668;6.860;2023-12-22T05:43:34;4.00;;;3.80;;
59856;SDS011;45733;52.668;6.860;2023-12-22T05:45:59;3.97;;;3.78;;
59856;SDS011;45733;52.668;6.860;2023-12-22T05:48:27;3.65;;;3.45;;
59856;SDS011;45733;52.668;6.860;2023-12-22T05:50:53;3.90;;;3.70;;
59856;SDS011;45733;52.668;6.860;2023-12-22T05:53:22;4.90;;;4.60;;
59856;SDS011;45733;52.668;6.860;2023-12-22T05:55:48;4.60;;;4.30;;
59856;SDS011;45733;52.668;6.860;2023-12-22T05:58:14;3.90;;;3.70;;
59856;SDS011;45733;52.668;6.860;2023-12-22T06:00:39;4.10;;;3.90;;
59856;SDS011;45733;52.668;6.860;2023-12-22T06:03:05;3.95;;;3.75;;
59856;SDS011;45733;52.668;6.860;2023-12-22T06:05:31;4.57;;;4.30;;
59856;SDS011;45733;52.668;6.860;2023-12-22T06:07:57;4.70;;;4.40;;
59856;SDS011;45733;52.668;6.860;2023-12-22T06:10:22;4.55;;;4.30;;
59856;SDS011;45733;52.668;6.860;2023-12-22T06:12:48;4.30;;;4.05;;
59856;SDS011;45733;52.668;6.860;2023-12-22T06:15:14;4.35;;;4.13;;
59856;SDS011;45733;52.668;6.860;2023-12-22T06:17:40;3.85;;;3.65;;
59856;SDS011;45733;52.668;6.860;2023-12-22T06:20:05;4.47;;;4.25;;
59856;SDS011;45733;52.668;6.860;2023-12-22T06:22:32;4.25;;;4.05;;
59856;SDS011;45733;52.668;6.860;2023-12-22T06:24:57;3.85;;;3.65;;
59856;SDS011;45733;52.668;6.860;2023-12-22T06:27:23;3.72;;;3.53;;
59856;SDS011;45733;52.668;6.860;2023-12-22T06:29:50;4.63;;;4.32;;
59856;SDS011;45733;52.668;6.860;2023-12-22T06:32:15;4.70;;;4.40;;
59856;SDS011;45733;52.668;6.860;2023-12-22T06:34:42;4.60;;;4.30;;
59856;SDS011;45733;52.668;6.860;2023-12-22T06:37:08;4.80;;;4.50;;
59856;SDS011;45733;52.668;6.860;2023-12-22T06:39:33;3.90;;;3.70;;
59856;SDS011;45733;52.668;6.860;2023-12-22T06:41:59;4.45;;;4.25;;
59856;SDS011;45733;52.668;6.860;2023-12-22T06:44:25;3.70;;;3.50;;
59856;SDS011;45733;52.668;6.860;2023-12-22T06:46:51;4.28;;;4.07;;
59856;SDS011;45733;52.668;6.860;2023-12-22T06:49:17;3.90;;;3.70;;
59856;SDS011;45733;52.668;6.860;2023-12-22T06:51:43;3.80;;;3.60;;
59856;SDS011;45733;52.668;6.860;2023-12-22T06:54:09;3.53;;;3.33;;
59856;SDS011;45733;52.668;6.860;2023-12-22T06:56:34;3.90;;;3.70;;
59856;SDS011;45733;52.668;6.860;2023-12-22T06:59:01;3.95;;;3.75;;
59856;SDS011;45733;52.668;6.860;2023-12-22T07:01:28;3.85;;;3.65;;
59856;SDS011;45733;52.668;6.860;2023-12-22T07:03:59;3.95;;;3.75;;
59856;SDS011;45733;52.668;6.860;2023-12-22T07:06:26;3.35;;;3.15;;
59856;SDS011;45733;52.668;6.860;2023-12-22T07:14:03;4.03;;;3.83;;
59856;SDS011;45733;52.668;6.860;2023-12-22T07:16:29;4.30;;;4.10;;
59856;SDS011;45733;52.668;6.860;2023-12-22T07:18:55;4.00;;;3.80;;
59856;SDS011;45733;52.668;6.860;2023-12-22T07:21:21;3.25;;;3.05;;
59856;SDS011;45733;52.668;6.860;2023-12-22T07:23:46;3.75;;;3.55;;
59856;SDS011;45733;52.668;6.860;2023-12-22T07:26:12;3.42;;;3.22;;
59856;SDS011;45733;52.668;6.860;2023-12-22T07:28:38;3.38;;;3.17;;
59856;SDS011;45733;52.668;6.860;2023-12-22T07:31:03;3.45;;;3.25;;
59856;SDS011;45733;52.668;6.860;2023-12-22T07:33:30;3.25;;;3.05;;
59856;SDS011;45733;52.668;6.860;2023-12-22T07:35:56;3.38;;;3.17;;
59856;SDS011;45733;52.668;6.860;2023-12-22T07:38:22;3.35;;;3.15;;
59856;SDS011;45733;52.668;6.860;2023-12-22T07:40:48;3.20;;;3.00;;
59856;SDS011;45733;52.668;6.860;2023-12-22T07:43:14;3.20;;;3.00;;
59856;SDS011;45733;52.668;6.860;2023-12-22T07:45:40;2.85;;;2.75;;
59856;SDS011;45733;52.668;6.860;2023-12-22T07:48:06;3.15;;;2.95;;
59856;SDS011;45733;52.668;6.860;2023-12-22T07:50:32;3.10;;;2.90;;
59856;SDS011;45733;52.668;6.860;2023-12-22T07:52:58;2.63;;;2.53;;
59856;SDS011;45733;52.668;6.860;2023-12-22T07:55:24;2.72;;;2.63;;
59856;SDS011;45733;52.668;6.860;2023-12-22T07:57:50;3.35;;;3.15;;
59856;SDS011;45733;52.668;6.860;2023-12-22T08:00:16;3.10;;;2.90;;
59856;SDS011;45733;52.668;6.860;2023-12-22T08:02:42;3.42;;;3.22;;
59856;SDS011;45733;52.668;6.860;2023-12-22T08:05:08;3.42;;;3.22;;
59856;SDS011;45733;52.668;6.860;2023-12-22T08:07:35;2.65;;;2.55;;
59856;SDS011;45733;52.668;6.860;2023-12-22T08:10:01;2.55;;;2.45;;
59856;SDS011;45733;52.668;6.860;2023-12-22T08:12:27;2.45;;;2.35;;
59856;SDS011;45733;52.668;6.860;2023-12-22T08:14:53;2.95;;;2.80;;
59856;SDS011;45733;52.668;6.860;2023-12-22T08:17:19;3.25;;;3.05;;
59856;SDS011;45733;52.668;6.860;2023-12-22T08:19:45;2.60;;;2.50;;
59856;SDS011;45733;52.668;6.860;2023-12-22T08:22:12;2.45;;;2.35;;
59856;SDS011;45733;52.668;6.860;2023-12-22T08:24:40;2.40;;;2.30;;
59856;SDS011;45733;52.668;6.860;2023-12-22T08:27:07;2.42;;;2.33;;
59856;SDS011;45733;52.668;6.860;2023-12-22T08:29:33;2.50;;;2.40;;
59856;SDS011;45733;52.668;6.860;2023-12-22T08:31:59;2.60;;;2.50;;
59856;SDS011;45733;52.668;6.860;2023-12-22T08:34:25;3.03;;;2.83;;
59856;SDS011;45733;52.668;6.860;2023-12-22T08:36:54;3.05;;;2.85;;
59856;SDS011;45733;52.668;6.860;2023-12-22T08:39:20;2.50;;;2.40;;
59856;SDS011;45733;52.668;6.860;2023-12-22T08:41:45;2.70;;;2.60;;
59856;SDS011;45733;52.668;6.860;2023-12-22T08:44:13;3.20;;;3.00;;
59856;SDS011;45733;52.668;6.860;2023-12-22T08:46:41;2.50;;;2.40;;
59856;SDS011;45733;52.668;6.860;2023-12-22T08:49:07;3.13;;;2.92;;
59856;SDS011;45733;52.668;6.860;2023-12-22T08:51:33;2.70;;;2.60;;
59856;SDS011;45733;52.668;6.860;2023-12-22T08:53:59;2.70;;;2.60;;
59856;SDS011;45733;52.668;6.860;2023-12-22T08:56:25;2.70;;;2.60;;
59856;SDS011;45733;52.668;6.860;2023-12-22T08:58:51;3.35;;;3.15;;
59856;SDS011;45733;52.668;6.860;2023-12-22T09:01:20;2.75;;;2.60;;
59856;SDS011;45733;52.668;6.860;2023-12-22T09:03:47;2.60;;;2.50;;
59856;SDS011;45733;52.668;6.860;2023-12-22T09:06:17;2.70;;;2.60;;
59856;SDS011;45733;52.668;6.860;2023-12-22T09:08:43;3.53;;;3.33;;
59856;SDS011;45733;52.668;6.860;2023-12-22T09:11:11;3.10;;;2.90;;
59856;SDS011;45733;52.668;6.860;2023-12-22T09:13:37;3.50;;;3.30;;
59856;SDS011;45733;52.668;6.860;2023-12-22T09:16:04;3.05;;;2.85;;
59856;SDS011;45733;52.668;6.860;2023-12-22T09:18:30;2.75;;;2.65;;
59856;SDS011;45733;52.668;6.860;2023-12-22T09:20:59;3.50;;;3.30;;
59856;SDS011;45733;52.668;6.860;2023-12-22T09:23:25;3.40;;;3.20;;
59856;SDS011;45733;52.668;6.860;2023-12-22T09:25:51;3.55;;;3.35;;
59856;SDS011;45733;52.668;6.860;2023-12-22T09:28:17;3.42;;;3.22;;
59856;SDS011;45733;52.668;6.860;2023-12-22T09:30:42;3.53;;;3.33;;
59856;SDS011;45733;52.668;6.860;2023-12-22T09:33:11;3.25;;;3.05;;
59856;SDS011;45733;52.668;6.860;2023-12-22T09:35:37;3.40;;;3.20;;
59856;SDS011;45733;52.668;6.860;2023-12-22T09:38:06;3.03;;;2.83;;
59856;SDS011;45733;52.668;6.860;2023-12-22T09:40:34;3.70;;;3.50;;
59856;SDS011;45733;52.668;6.860;2023-12-22T09:43:01;4.00;;;3.80;;
59856;SDS011;45733;52.668;6.860;2023-12-22T09:45:28;3.90;;;3.70;;
59856;SDS011;45733;52.668;6.860;2023-12-22T09:47:59;3.30;;;3.10;;
59856;SDS011;45733;52.668;6.860;2023-12-22T09:50:26;3.45;;;3.25;;
59856;SDS011;45733;52.668;6.860;2023-12-22T09:52:53;4.03;;;3.83;;
59856;SDS011;45733;52.668;6.860;2023-12-22T09:55:21;3.90;;;3.70;;
59856;SDS011;45733;52.668;6.860;2023-12-22T09:57:47;3.80;;;3.60;;
59856;SDS011;45733;52.668;6.860;2023-12-22T10:00:14;3.60;;;3.40;;
59856;SDS011;45733;52.668;6.860;2023-12-22T10:02:41;3.40;;;3.20;;
59856;SDS011;45733;52.668;6.860;2023-12-22T10:05:09;3.25;;;3.05;;
59856;SDS011;45733;52.668;6.860;2023-12-22T10:07:35;3.15;;;2.95;;
59856;SDS011;45733;52.668;6.860;2023-12-22T10:10:01;3.20;;;3.00;;
59856;SDS011;45733;52.668;6.860;2023-12-22T10:12:29;3.70;;;3.50;;
59856;SDS011;45733;52.668;6.860;2023-12-22T10:14:58;3.13;;;2.92;;
59856;SDS011;45733;52.668;6.860;2023-12-22T10:17:25;3.17;;;2.97;;
59856;SDS011;45733;52.668;6.860;2023-12-22T10:19:51;3.55;;;3.35;;
59856;SDS011;45733;52.668;6.860;2023-12-22T10:22:17;3.13;;;2.92;;
59856;SDS011;45733;52.668;6.860;2023-12-22T10:24:46;3.03;;;2.83;;
59856;SDS011;45733;52.668;6.860;2023-12-22T10:27:13;3.60;;;3.40;;
59856;SDS011;45733;52.668;6.860;2023-12-22T10:29:40;2.88;;;2.72;;
59856;SDS011;45733;52.668;6.860;2023-12-22T10:32:07;3.63;;;3.42;;
59856;SDS011;45733;52.668;6.860;2023-12-22T10:34:33;2.80;;;2.70;;
59856;SDS011;45733;52.668;6.860;2023-12-22T10:36:59;3.20;;;3.00;;
59856;SDS011;45733;52.668;6.860;2023-12-22T10:39:32;3.13;;;2.92;;
59856;SDS011;45733;52.668;6.860;2023-12-22T10:42:00;3.30;;;3.10;;
59856;SDS011;45733;52.668;6.860;2023-12-22T10:44:27;3.20;;;3.00;;
59856;SDS011;45733;52.668;6.860;2023-12-22T10:46:54;3.35;;;3.15;;
59856;SDS011;45733;52.668;6.860;2023-12-22T10:49:20;3.30;;;3.10;;
59856;SDS011;45733;52.668;6.860;2023-12-22T10:51:47;2.83;;;2.63;;
59856;SDS011;45733;52.668;6.860;2023-12-22T10:54:13;2.88;;;2.70;;
59856;SDS011;45733;52.668;6.860;2023-12-22T10:56:39;3.00;;;2.80;;
59856;SDS011;45733;52.668;6.860;2023-12-22T10:59:05;3.33;;;3.13;;
59856;SDS011;45733;52.668;6.860;2023-12-22T11:01:31;3.30;;;3.10;;
59856;SDS011;45733;52.668;6.860;2023-12-22T11:04:05;3.22;;;3.03;;
59856;SDS011;45733;52.668;6.860;2023-12-22T11:06:36;3.00;;;2.80;;
59856;SDS011;45733;52.668;6.860;2023-12-22T11:09:09;3.22;;;3.03;;
59856;SDS011;45733;52.668;6.860;2023-12-22T11:11:39;2.90;;;2.70;;
59856;SDS011;45733;52.668;6.860;2023-12-22T11:14:05;3.22;;;3.03;;
59856;SDS011;45733;52.668;6.860;2023-12-22T11:16:32;2.83;;;2.70;;
59856;SDS011;45733;52.668;6.860;2023-12-22T11:18:59;2.80;;;2.70;;
59856;SDS011;45733;52.668;6.860;2023-12-22T11:21:26;3.22;;;3.03;;
59856;SDS011;45733;52.668;6.860;2023-12-22T11:23:54;3.00;;;2.80;;
59856;SDS011;45733;52.668;6.860;2023-12-22T11:26:23;2.60;;;2.50;;
59856;SDS011;45733;52.668;6.860;2023-12-22T11:28:50;2.78;;;2.67;;
59856;SDS011;45733;52.668;6.860;2023-12-22T11:31:19;3.30;;;3.10;;
59856;SDS011;45733;52.668;6.860;2023-12-22T11:33:49;3.47;;;3.28;;
59856;SDS011;45733;52.668;6.860;2023-12-22T11:36:16;3.45;;;3.25;;
59856;SDS011;45733;52.668;6.860;2023-12-22T11:38:44;2.78;;;2.60;;
59856;SDS011;45733;52.668;6.860;2023-12-22T11:41:12;3.10;;;2.90;;
59856;SDS011;45733;52.668;6.860;2023-12-22T11:43:43;3.40;;;3.20;;
59856;SDS011;45733;52.668;6.860;2023-12-22T11:46:10;3.10;;;2.90;;
59856;SDS011;45733;52.668;6.860;2023-12-22T11:48:36;2.92;;;2.75;;
59856;SDS011;45733;52.668;6.860;2023-12-22T11:51:11;3.63;;;3.42;;
59856;SDS011;45733;52.668;6.860;2023-12-22T11:53:41;3.50;;;3.30;;
59856;SDS011;45733;52.668;6.860;2023-12-22T11:56:08;3.40;;;3.20;;
59856;SDS011;45733;52.668;6.860;2023-12-22T11:58:38;3.22;;;3.03;;
59856;SDS011;45733;52.668;6.860;2023-12-22T12:01:24;3.80;;;3.60;;
59856;SDS011;45733;52.668;6.860;2023-12-22T12:06:21;3.42;;;3.22;;
59856;SDS011;45733;52.668;6.860;2023-12-22T12:08:51;3.70;;;3.50;;
59856;SDS011;45733;52.668;6.860;2023-12-22T12:11:20;3.75;;;3.55;;
59856;SDS011;45733;52.668;6.860;2023-12-22T12:13:46;3.22;;;3.03;;
59856;SDS011;45733;52.668;6.860;2023-12-22T12:16:14;3.70;;;3.50;;
59856;SDS011;45733;52.668;6.860;2023-12-22T12:18:44;3.22;;;3.03;;
59856;SDS011;45733;52.668;6.860;2023-12-22T12:21:10;3.58;;;3.38;;
59856;SDS011;45733;52.668;6.860;2023-12-22T12:23:37;3.80;;;3.60;;
59856;SDS011;45733;52.668;6.860;2023-12-22T12:26:09;3.72;;;3.53;;
59856;SDS011;45733;52.668;6.860;2023-12-22T12:28:38;3.33;;;3.13;;
59856;SDS011;45733;52.668;6.860;2023-12-22T12:31:09;3.70;;;3.50;;
59856;SDS011;45733;52.668;6.860;2023-12-22T12:33:35;3.42;;;3.22;;
59856;SDS011;45733;52.668;6.860;2023-12-22T12:36:03;3.55;;;3.35;;
59856;SDS011;45733;52.668;6.860;2023-12-22T12:41:03;3.50;;;3.30;;
59856;SDS011;45733;52.668;6.860;2023-12-22T12:43:32;3.35;;;3.15;;
59856;SDS011;45733;52.668;6.860;2023-12-22T12:46:04;4.40;;;4.10;;
59856;SDS011;45733;52.668;6.860;2023-12-22T12:48:30;3.72;;;3.53;;
59856;SDS011;45733;52.668;6.860;2023-12-22T12:51:05;3.50;;;3.30;;
59856;SDS011;45733;52.668;6.860;2023-12-22T12:53:32;4.47;;;4.18;;
59856;SDS011;45733;52.668;6.860;2023-12-22T12:55:58;4.00;;;3.80;;
59856;SDS011;45733;52.668;6.860;2023-12-22T12:58:28;3.53;;;3.33;;
59856;SDS011;45733;52.668;6.860;2023-12-22T13:03:52;4.50;;;4.20;;
59856;SDS011;45733;52.668;6.860;2023-12-22T13:08:49;3.97;;;3.78;;
59856;SDS011;45733;52.668;6.860;2023-12-22T13:11:16;3.88;;;3.67;;
59856;SDS011;45733;52.668;6.860;2023-12-22T13:13:49;4.00;;;3.80;;
59856;SDS011;45733;52.668;6.860;2023-12-22T13:16:22;3.28;;;3.08;;
59856;SDS011;45733;52.668;6.860;2023-12-22T13:18:51;3.47;;;3.28;;
59856;SDS011;45733;52.668;6.860;2023-12-22T13:21:18;3.33;;;3.13;;
59856;SDS011;45733;52.668;6.860;2023-12-22T13:23:44;3.85;;;3.65;;
59856;SDS011;45733;52.668;6.860;2023-12-22T13:26:19;3.72;;;3.53;;
59856;SDS011;45733;52.668;6.860;2023-12-22T13:28:45;4.10;;;3.90;;
59856;SDS011;45733;52.668;6.860;2023-12-22T13:31:12;3.63;;;3.42;;
59856;SDS011;45733;52.668;6.860;2023-12-22T13:33:39;3.42;;;3.22;;
59856;SDS011;45733;52.668;6.860;2023-12-22T13:36:05;3.90;;;3.70;;
59856;SDS011;45733;52.668;6.860;2023-12-22T13:38:32;3.55;;;3.35;;
59856;SDS011;45733;52.668;6.860;2023-12-22T13:41:00;3.95;;;3.75;;
59856;SDS011;45733;52.668;6.860;2023-12-22T13:43:29;3.42;;;3.22;;
59856;SDS011;45733;52.668;6.860;2023-12-22T13:45:55;4.00;;;3.80;;
59856;SDS011;45733;52.668;6.860;2023-12-22T13:48:22;3.50;;;3.30;;
59856;SDS011;45733;52.668;6.860;2023-12-22T13:50:56;3.65;;;3.45;;
59856;SDS011;45733;52.668;6.860;2023-12-22T13:53:22;4.00;;;3.80;;
59856;SDS011;45733;52.668;6.860;2023-12-22T13:56:00;4.30;;;4.00;;
59856;SDS011;45733;52.668;6.860;2023-12-22T13:58:26;4.03;;;3.83;;
59856;SDS011;45733;52.668;6.860;2023-12-22T14:00:52;3.03;;;2.83;;
59856;SDS011;45733;52.668;6.860;2023-12-22T14:03:18;3.80;;;3.60;;
59856;SDS011;45733;52.668;6.860;2023-12-22T14:05:48;3.45;;;3.25;;
59856;SDS011;45733;52.668;6.860;2023-12-22T14:08:14;3.55;;;3.35;;
59856;SDS011;45733;52.668;6.860;2023-12-22T14:10:49;3.28;;;3.08;;
59856;SDS011;45733;52.668;6.860;2023-12-22T14:13:15;3.60;;;3.40;;
59856;SDS011;45733;52.668;6.860;2023-12-22T14:15:41;3.78;;;3.58;;
59856;SDS011;45733;52.668;6.860;2023-12-22T14:18:08;4.05;;;3.85;;
59856;SDS011;45733;52.668;6.860;2023-12-22T14:20:34;3.38;;;3.17;;
59856;SDS011;45733;52.668;6.860;2023-12-22T14:23:00;3.80;;;3.60;;
59856;SDS011;45733;52.668;6.860;2023-12-22T14:25:26;3.17;;;2.97;;
59856;SDS011;45733;52.668;6.860;2023-12-22T14:27:52;3.17;;;2.97;;
59856;SDS011;45733;52.668;6.860;2023-12-22T14:30:22;3.80;;;3.60;;
59856;SDS011;45733;52.668;6.860;2023-12-22T14:32:48;3.90;;;3.70;;
59856;SDS011;45733;52.668;6.860;2023-12-22T14:35:14;3.90;;;3.70;;
59856;SDS011;45733;52.668;6.860;2023-12-22T14:37:40;3.83;;;3.63;;
59856;SDS011;45733;52.668;6.860;2023-12-22T14:40:06;3.90;;;3.70;;
59856;SDS011;45733;52.668;6.860;2023-12-22T14:42:32;4.00;;;3.80;;
59856;SDS011;45733;52.668;6.860;2023-12-22T14:44:58;3.90;;;3.70;;
59856;SDS011;45733;52.668;6.860;2023-12-22T14:47:34;3.40;;;3.20;;
59856;SDS011;45733;52.668;6.860;2023-12-22T14:50:09;3.35;;;3.15;;
59856;SDS011;45733;52.668;6.860;2023-12-22T14:52:38;3.42;;;3.22;;
59856;SDS011;45733;52.668;6.860;2023-12-22T14:55:05;3.80;;;3.60;;
59856;SDS011;45733;52.668;6.860;2023-12-22T14:57:31;3.50;;;3.30;;
59856;SDS011;45733;52.668;6.860;2023-12-22T14:59:58;3.25;;;3.05;;
59856;SDS011;45733;52.668;6.860;2023-12-22T15:02:24;3.30;;;3.10;;
59856;SDS011;45733;52.668;6.860;2023-12-22T15:04:50;3.60;;;3.40;;
59856;SDS011;45733;52.668;6.860;2023-12-22T15:07:16;3.40;;;3.20;;